createdAt,value
2018-06-02T00:01:31.122Z,27.75
2018-06-02T00:04:01.462Z,27.50
2018-06-02T00:06:33.173Z,28.75
2018-06-02T00:09:22.736Z,26.00
2018-06-02T00:14:42.429Z,29.00
2018-06-02T00:17:14.660Z,29.50
2018-06-02T00:19:45.231Z,29.50
2018-06-02T00:22:15.750Z,25.25
2018-06-02T00:24:46.556Z,24.50
2018-06-02T00:27:19.854Z,23.75
2018-06-02T00:29:57.326Z,20.75
2018-06-02T00:32:29.103Z,23.75
2018-06-02T00:35:00.437Z,23.50
2018-06-02T00:37:42.092Z,21.00
2018-06-02T00:40:12.996Z,19.50
2018-06-02T00:42:43.771Z,19.50
2018-06-02T00:47:54.716Z,17.00
2018-06-02T00:50:27.835Z,18.50
2018-06-02T00:52:58.293Z,18.25
2018-06-02T00:55:28.860Z,18.50
2018-06-02T00:58:03.362Z,19.25
2018-06-02T01:00:36.488Z,18.00
2018-06-02T01:03:07.884Z,16.75
2018-06-02T01:05:38.385Z,17.00
2018-06-02T01:08:17.443Z,16.50
2018-06-02T01:10:48.260Z,16.50
2018-06-02T01:13:18.783Z,14.75
2018-06-02T01:15:49.645Z,13.50
2018-06-02T01:18:20.057Z,14.00
2018-06-02T01:20:50.769Z,13.25
2018-06-02T01:23:21.218Z,14.25
2018-06-02T01:25:51.945Z,15.50
2018-06-02T01:28:22.458Z,16.00
2018-06-02T01:30:53.139Z,17.25
2018-06-02T01:33:24.037Z,15.75
2018-06-02T01:35:54.870Z,17.00
2018-06-02T01:38:25.231Z,19.25
2018-06-02T01:40:56.290Z,13.50
2018-06-02T01:43:27.197Z,17.25
2018-06-02T01:45:58.202Z,18.75
2018-06-02T01:48:29.271Z,17.50
2018-06-02T01:50:59.957Z,18.50
2018-06-02T01:53:30.881Z,20.00
2018-06-02T01:56:01.325Z,19.00
2018-06-02T01:58:31.975Z,18.50
2018-06-02T02:01:03.078Z,17.75
2018-06-02T02:03:33.493Z,19.50
2018-06-02T02:06:04.504Z,18.25
2018-06-02T02:08:35.786Z,21.25
2018-06-02T02:11:06.717Z,20.25
2018-06-02T02:13:38.646Z,19.00
2018-06-02T02:16:10.415Z,18.75
2018-06-02T02:18:42.030Z,22.50
2018-06-02T02:21:13.177Z,18.25
2018-06-02T02:23:43.596Z,21.75
2018-06-02T02:26:22.821Z,23.50
2018-06-02T02:28:53.171Z,19.25
2018-06-02T02:31:24.002Z,20.50
2018-06-02T02:33:54.629Z,21.50
2018-06-02T02:36:25.157Z,22.00
2018-06-02T02:38:55.512Z,21.25
2018-06-02T02:41:26.266Z,20.00
2018-06-02T02:43:56.710Z,21.25
2018-06-02T02:46:28.172Z,22.00
2018-06-02T02:48:58.884Z,22.25
2018-06-02T02:51:29.724Z,22.00
2018-06-02T02:54:00.291Z,22.00
2018-06-02T02:56:31.477Z,22.00
2018-06-02T02:59:02.126Z,24.50
2018-06-02T03:01:33.698Z,22.75
2018-06-02T03:04:05.022Z,22.75
2018-06-02T03:06:36.878Z,23.25
2018-06-02T03:09:08.656Z,23.00
2018-06-02T03:11:39.451Z,22.00
2018-06-02T03:14:10.802Z,21.75
2018-06-02T03:16:42.449Z,21.25
2018-06-02T03:19:13.219Z,23.25
2018-06-02T03:21:44.698Z,23.75
2018-06-02T03:24:15.949Z,22.00
2018-06-02T03:26:47.847Z,23.25
2018-06-02T03:29:18.825Z,22.50
2018-06-02T03:31:49.970Z,22.75
2018-06-02T03:34:20.770Z,24.25
2018-06-02T03:36:51.563Z,22.75
2018-06-02T03:39:22.732Z,24.00
2018-06-02T03:41:53.159Z,25.75
2018-06-02T03:44:23.681Z,23.25
2018-06-02T03:46:54.209Z,23.00
2018-06-02T03:49:24.758Z,24.00
2018-06-02T03:51:55.551Z,26.50
2018-06-02T03:54:26.097Z,22.00
2018-06-02T03:56:56.545Z,24.00
2018-06-02T03:59:27.283Z,24.50
2018-06-02T04:01:58.056Z,24.00
2018-06-02T04:04:28.450Z,24.00
2018-06-02T04:06:59.971Z,24.00
2018-06-02T04:09:33.810Z,24.00
2018-06-02T04:12:06.022Z,24.50
2018-06-02T04:14:36.809Z,24.75
2018-06-02T04:17:07.434Z,23.00
2018-06-02T04:19:38.978Z,25.00
2018-06-02T04:22:10.130Z,25.25
2018-06-02T04:24:46.377Z,23.75
2018-06-02T04:27:20.216Z,27.00
2018-06-02T04:29:52.634Z,22.50
2018-06-02T04:32:23.382Z,26.25
2018-06-02T04:34:55.047Z,24.75
2018-06-02T04:37:25.842Z,26.25
2018-06-02T04:39:56.189Z,24.75
2018-06-02T04:42:26.983Z,24.75
2018-06-02T04:44:57.472Z,24.75
2018-06-02T04:47:28.079Z,24.00
2018-06-02T04:49:58.868Z,26.75
2018-06-02T04:52:29.535Z,24.50
2018-06-02T04:55:02.140Z,26.75
2018-06-02T04:57:33.073Z,26.25
2018-06-02T05:00:05.141Z,23.75
2018-06-02T05:02:36.048Z,24.75
2018-06-02T05:05:06.959Z,27.50
2018-06-02T05:07:37.511Z,25.00
2018-06-02T05:10:07.964Z,26.75
2018-06-02T05:12:40.447Z,25.75
2018-06-02T05:15:17.174Z,25.75
2018-06-02T05:17:48.069Z,26.25
2018-06-02T05:20:19.771Z,26.25
2018-06-02T05:23:05.525Z,26.00
2018-06-02T05:25:36.554Z,27.50
2018-06-02T05:28:07.166Z,26.00
2018-06-02T05:30:39.799Z,26.75
2018-06-02T05:33:12.242Z,27.75
2018-06-02T05:35:45.397Z,28.75
2018-06-02T05:38:16.672Z,29.25
2018-06-02T05:40:58.489Z,29.25
2018-06-02T05:43:30.411Z,29.50
2018-06-02T05:46:01.321Z,28.25
2018-06-02T05:48:36.799Z,29.25
2018-06-02T05:51:07.999Z,29.00
2018-06-02T05:53:39.777Z,29.25
2018-06-02T05:56:12.161Z,27.25
2018-06-02T05:58:43.771Z,29.25
2018-06-02T06:01:17.700Z,28.00
2018-06-02T06:03:49.092Z,26.00
2018-06-02T06:06:30.868Z,28.25
2018-06-02T06:09:02.283Z,27.75
2018-06-02T06:11:35.993Z,28.50
2018-06-02T06:14:06.916Z,27.75
2018-06-02T06:16:37.654Z,25.75
2018-06-02T06:19:08.488Z,27.75
2018-06-02T06:21:40.673Z,28.50
2018-06-02T06:24:11.754Z,28.25
2018-06-02T06:26:42.770Z,24.25
2018-06-02T06:32:01.814Z,22.75
2018-06-02T06:34:34.178Z,24.00
2018-06-02T06:37:07.013Z,21.50
2018-06-02T06:39:39.395Z,23.00
2018-06-02T06:42:10.433Z,22.00
2018-06-02T06:44:42.217Z,21.50
2018-06-02T06:47:13.460Z,21.00
2018-06-02T06:49:44.295Z,21.75
2018-06-02T06:52:19.846Z,20.75
2018-06-02T06:55:04.124Z,21.00
2018-06-02T07:00:21.149Z,17.75
2018-06-02T07:02:55.238Z,16.00
2018-06-02T07:05:26.892Z,16.50
2018-06-02T07:10:39.241Z,14.25
2018-06-02T07:13:10.116Z,14.50
2018-06-02T07:15:45.492Z,12.50
2018-06-02T07:18:23.296Z,14.00
2018-06-02T07:20:57.275Z,14.00
2018-06-02T07:23:29.049Z,13.25
2018-06-02T07:26:01.164Z,13.25
2018-06-02T07:28:33.787Z,15.00
2018-06-02T07:31:06.211Z,14.00
2018-06-02T07:33:45.713Z,13.25
2018-06-02T07:36:16.365Z,13.25
2018-06-02T07:38:49.243Z,12.00
2018-06-02T07:46:42.976Z,13.50
2018-06-02T07:49:14.689Z,14.25
2018-06-02T07:51:46.485Z,14.50
2018-06-02T07:54:17.550Z,13.25
2018-06-02T07:56:48.802Z,13.00
2018-06-02T07:59:27.952Z,12.00
2018-06-02T08:02:00.448Z,13.00
2018-06-02T08:04:34.949Z,13.50
2018-06-02T08:07:20.547Z,13.75
2018-06-02T08:10:05.397Z,14.25
2018-06-02T08:12:46.733Z,12.25
2018-06-02T08:15:20.107Z,12.50
2018-06-02T08:17:53.759Z,11.50
2018-06-02T08:20:32.903Z,13.00
2018-06-02T08:25:57.160Z,12.75
2018-06-02T08:28:30.732Z,12.50
2018-06-02T08:31:33.169Z,12.00
2018-06-02T08:36:30.340Z,11.75
2018-06-02T08:39:02.380Z,11.00
2018-06-02T08:41:35.474Z,11.50
2018-06-02T08:44:07.991Z,11.00
2018-06-02T08:46:39.949Z,11.75
2018-06-02T08:49:10.885Z,11.50
2018-06-02T08:54:17.158Z,13.00
2018-06-02T08:56:51.127Z,11.00
2018-06-02T08:59:24.435Z,11.75
2018-06-02T09:01:58.015Z,13.00
2018-06-02T09:04:50.472Z,11.00
2018-06-02T09:07:28.404Z,11.50
2018-06-02T09:10:02.560Z,12.50
2018-06-02T09:12:33.450Z,11.00
2018-06-02T09:15:07.505Z,11.75
2018-06-02T09:17:46.708Z,10.75
2018-06-02T09:20:23.199Z,10.00
2018-06-02T09:22:56.047Z,9.00
2018-06-02T09:25:30.358Z,9.00
2018-06-02T09:28:01.998Z,9.00
2018-06-02T09:30:41.495Z,9.25
2018-06-02T09:33:23.660Z,9.00
2018-06-02T09:35:56.118Z,10.00
2018-06-02T09:41:17.054Z,11.25
2018-06-02T09:43:50.233Z,12.00
2018-06-02T09:46:36.667Z,9.00
2018-06-02T09:49:11.566Z,9.25
2018-06-02T09:51:49.758Z,10.25
2018-06-02T09:54:43.866Z,11.00
2018-06-02T09:57:20.990Z,9.75
2018-06-02T09:59:54.173Z,13.00
2018-06-02T10:02:25.621Z,10.00
2018-06-02T10:04:59.122Z,11.25
2018-06-02T10:07:41.659Z,10.00
2018-06-02T10:10:12.902Z,12.00
2018-06-02T10:12:45.328Z,9.75
2018-06-02T10:15:19.573Z,8.75
2018-06-02T10:17:51.103Z,9.00
2018-06-02T10:20:22.683Z,9.00
2018-06-02T10:22:54.210Z,7.50
2018-06-02T10:25:25.847Z,7.50
2018-06-02T10:27:56.349Z,8.00
2018-06-02T10:30:27.928Z,8.25
2018-06-02T10:32:59.922Z,8.75
2018-06-02T10:35:31.633Z,8.00
2018-06-02T10:38:05.659Z,9.00
2018-06-02T10:40:39.965Z,7.75
2018-06-02T10:43:11.934Z,6.75
2018-06-02T10:45:45.862Z,6.50
2018-06-02T10:48:16.554Z,6.50
2018-06-02T10:50:48.553Z,7.00
2018-06-02T10:53:20.426Z,6.50
2018-06-02T10:55:52.726Z,6.50
2018-06-02T10:58:29.542Z,6.75
2018-06-02T11:01:00.691Z,8.75
2018-06-02T11:03:32.344Z,8.50
2018-06-02T11:06:03.989Z,7.75
2018-06-02T11:08:36.530Z,7.75
2018-06-02T11:11:10.479Z,8.00
2018-06-02T11:16:44.716Z,5.75
2018-06-02T11:19:16.726Z,7.00
2018-06-02T11:21:48.351Z,7.00
2018-06-02T11:24:25.953Z,7.25
2018-06-02T11:26:57.172Z,9.25
2018-06-02T11:29:41.890Z,6.50
2018-06-02T11:32:28.139Z,8.75
2018-06-02T11:35:00.538Z,7.75
2018-06-02T11:37:31.364Z,6.25
2018-06-02T11:40:03.116Z,8.00
2018-06-02T11:42:34.503Z,6.25
2018-06-02T11:45:13.173Z,7.25
2018-06-02T11:47:45.908Z,5.50
2018-06-02T11:50:19.126Z,6.50
2018-06-02T11:52:50.813Z,5.75
2018-06-02T11:55:26.973Z,6.50
2018-06-02T11:58:12.953Z,4.00
2018-06-02T12:00:49.658Z,6.00
2018-06-02T12:03:25.233Z,6.00
2018-06-02T12:05:56.222Z,6.75
2018-06-02T12:08:28.687Z,5.00
2018-06-02T12:10:59.277Z,5.00
2018-06-02T12:13:48.496Z,6.75
2018-06-02T12:16:32.018Z,6.00
2018-06-02T12:19:03.491Z,5.00
2018-06-02T12:21:33.845Z,6.00
2018-06-02T12:24:05.993Z,5.50
2018-06-02T12:26:37.107Z,4.00
2018-06-02T12:29:08.793Z,4.25
2018-06-02T12:31:44.750Z,4.75
2018-06-02T12:34:17.669Z,7.50
2018-06-02T12:36:50.321Z,5.00
2018-06-02T12:39:22.622Z,7.00
2018-06-02T12:44:37.851Z,4.25
2018-06-02T12:47:09.144Z,5.25
2018-06-02T12:49:42.359Z,5.00
2018-06-02T12:52:13.478Z,5.25
2018-06-02T12:54:46.171Z,4.25
2018-06-02T12:57:20.330Z,4.25
2018-06-02T12:59:53.864Z,4.00
2018-06-02T13:02:34.411Z,3.00
2018-06-02T13:05:09.187Z,4.25
2018-06-02T13:07:41.694Z,6.00
2018-06-02T13:10:17.985Z,3.00
2018-06-02T13:12:49.107Z,3.50
2018-06-02T13:15:23.600Z,3.00
2018-06-02T13:17:54.361Z,4.50
2018-06-02T13:22:56.933Z,4.25
2018-06-02T13:25:29.570Z,4.00
2018-06-02T13:28:06.344Z,4.50
2018-06-02T13:30:53.646Z,5.00
2018-06-02T13:33:25.133Z,5.00
2018-06-02T13:35:56.361Z,5.00
2018-06-02T13:38:28.703Z,5.00
2018-06-02T13:41:02.100Z,5.00
2018-06-02T13:43:34.863Z,5.00
2018-06-02T13:46:06.269Z,4.00
2018-06-02T13:48:37.538Z,5.00
2018-06-02T13:51:14.902Z,5.00
2018-06-02T13:53:46.394Z,4.00
2018-06-02T13:56:24.810Z,4.00
2018-06-02T13:59:26.061Z,6.00
2018-06-02T14:02:17.021Z,4.50
2018-06-02T14:04:58.995Z,4.75
2018-06-02T14:07:40.018Z,4.00
2018-06-02T14:10:34.572Z,4.00
2018-06-02T14:13:11.196Z,4.25
2018-06-02T14:15:52.639Z,4.00
2018-06-02T14:18:31.705Z,4.50
2018-06-02T14:21:20.191Z,3.75
2018-06-02T14:24:20.820Z,4.75
2018-06-02T14:26:59.044Z,3.00
2018-06-02T14:29:33.438Z,4.75
2018-06-02T14:32:13.308Z,3.50
2018-06-02T14:34:59.152Z,6.75
2018-06-02T14:37:35.165Z,6.75
2018-06-02T14:40:15.397Z,6.75
2018-06-02T14:42:48.831Z,7.00
2018-06-02T14:45:23.974Z,5.00
2018-06-02T14:47:58.444Z,4.00
2018-06-02T14:50:41.015Z,6.00
2018-06-02T14:53:20.064Z,5.75
2018-06-02T14:55:57.527Z,4.25
2018-06-02T14:58:32.642Z,4.75
2018-06-02T15:01:15.473Z,3.00
2018-06-02T15:03:56.166Z,3.00
2018-06-02T15:06:29.866Z,4.00
2018-06-02T15:09:06.951Z,3.00
2018-06-02T15:11:42.845Z,3.00
2018-06-02T15:17:42.236Z,4.50
2018-06-02T15:20:25.380Z,5.50
2018-06-02T15:23:01.300Z,3.75
2018-06-02T15:25:36.790Z,5.75
2018-06-02T15:28:13.474Z,4.75
2018-06-02T15:30:46.816Z,5.25
2018-06-02T15:33:24.884Z,8.75
2018-06-02T15:35:56.269Z,4.00
2018-06-02T15:38:32.769Z,5.25
2018-06-02T15:41:07.067Z,3.25
2018-06-02T15:43:37.694Z,3.50
2018-06-02T15:46:12.355Z,4.25
2018-06-02T15:48:55.496Z,4.25
2018-06-02T15:51:35.892Z,4.75
2018-06-02T15:54:08.269Z,5.75
2018-06-02T15:56:41.177Z,3.50
2018-06-02T15:59:16.538Z,4.50
2018-06-02T16:01:59.828Z,6.00
2018-06-02T16:04:51.329Z,4.25
2018-06-02T16:07:25.468Z,5.00
2018-06-02T16:09:57.782Z,4.75
2018-06-02T16:12:32.525Z,5.00
2018-06-02T16:15:06.289Z,5.25
2018-06-02T16:17:39.992Z,6.75
2018-06-02T16:20:11.279Z,6.00
2018-06-02T16:22:41.670Z,8.25
2018-06-02T16:25:17.120Z,6.75
2018-06-02T16:28:15.797Z,6.25
2018-06-02T16:30:52.217Z,6.75
2018-06-02T16:33:27.401Z,6.00
2018-06-02T16:36:03.667Z,8.25
2018-06-02T16:38:36.652Z,8.00
2018-06-02T16:41:11.744Z,9.00
2018-06-02T16:43:44.514Z,7.75
2018-06-02T16:46:17.486Z,7.00
2018-06-02T16:48:53.618Z,5.75
2018-06-02T16:51:28.657Z,6.75
2018-06-02T16:54:01.742Z,7.75
2018-06-02T16:56:48.654Z,6.75
2018-06-02T16:59:35.631Z,5.50
2018-06-02T17:02:09.500Z,6.25
2018-06-02T17:04:41.172Z,6.75
2018-06-02T17:07:12.787Z,8.00
2018-06-02T17:09:44.307Z,6.25
2018-06-02T17:12:19.817Z,5.75
2018-06-02T17:15:03.265Z,8.25
2018-06-02T17:17:39.228Z,6.25
2018-06-02T17:20:18.191Z,6.50
2018-06-02T17:22:58.563Z,7.00
2018-06-02T17:25:32.555Z,6.75
2018-06-02T17:28:07.126Z,6.50
2018-06-02T17:30:41.837Z,8.25
2018-06-02T17:33:18.921Z,9.75
2018-06-02T17:35:53.567Z,7.75
2018-06-02T17:38:24.495Z,7.25
2018-06-02T17:40:57.540Z,7.25
2018-06-02T17:43:29.465Z,6.50
2018-06-02T17:46:14.024Z,6.75
2018-06-02T17:48:47.568Z,7.00
2018-06-02T17:51:19.121Z,7.75
2018-06-02T17:53:50.269Z,6.00
2018-06-02T17:56:40.948Z,6.00
2018-06-02T17:59:16.375Z,7.50
2018-06-02T18:01:50.965Z,8.50
2018-06-02T18:04:21.606Z,7.75
2018-06-02T18:07:09.780Z,7.00
2018-06-02T18:09:41.158Z,7.25
2018-06-02T18:12:12.394Z,7.50
2018-06-02T18:15:29.773Z,6.25
2018-06-02T18:18:02.163Z,8.50
2018-06-02T18:20:49.964Z,7.00
2018-06-02T18:23:37.028Z,7.00
2018-06-02T18:26:13.320Z,8.50
2018-06-02T18:28:47.330Z,8.00
2018-06-02T18:31:22.793Z,7.00
2018-06-02T18:33:56.737Z,8.75
2018-06-02T18:36:33.081Z,8.50
2018-06-02T18:39:12.385Z,8.50
2018-06-02T18:42:05.650Z,12.00
2018-06-02T18:44:56.690Z,8.00
2018-06-02T18:47:29.750Z,8.00
2018-06-02T18:50:13.524Z,8.00
2018-06-02T18:52:45.319Z,8.25
2018-06-02T18:55:33.372Z,8.00
2018-06-02T18:58:06.817Z,8.00
2018-06-02T19:00:50.643Z,8.75
2018-06-02T19:03:38.490Z,8.25
2018-06-02T19:06:13.040Z,10.00
2018-06-02T19:08:48.644Z,9.50
2018-06-02T19:11:25.666Z,9.00
2018-06-02T19:13:59.244Z,13.75
2018-06-02T19:16:41.726Z,26.50
2018-06-02T19:19:17.016Z,8.00
2018-06-02T19:21:49.122Z,9.75
2018-06-02T19:24:27.648Z,8.50
2018-06-02T19:27:01.860Z,9.00
2018-06-02T19:29:34.186Z,8.75
2018-06-02T19:32:13.607Z,10.00
2018-06-02T19:34:46.555Z,11.50
2018-06-02T19:37:22.345Z,11.00
2018-06-02T19:39:57.580Z,10.25
2018-06-02T19:42:31.078Z,25.75
2018-06-02T19:45:47.356Z,18.75
2018-06-02T19:48:25.716Z,9.00
2018-06-02T19:51:02.155Z,9.25
2018-06-02T19:53:42.339Z,10.00
2018-06-02T19:56:16.104Z,10.75
2018-06-02T19:58:54.396Z,13.00
2018-06-02T20:01:29.064Z,10.00
2018-06-02T20:06:48.693Z,11.50
2018-06-02T20:09:23.662Z,10.50
2018-06-02T20:12:08.128Z,10.00
2018-06-02T20:14:40.960Z,10.00
2018-06-02T20:17:18.422Z,10.00
2018-06-02T20:20:05.794Z,10.25
2018-06-02T20:22:46.661Z,10.75
2018-06-02T20:25:28.221Z,9.00
2018-06-02T20:28:26.267Z,10.50
2018-06-02T20:31:52.201Z,11.25
2018-06-02T20:34:29.868Z,8.50
2018-06-02T20:37:10.829Z,11.00
2018-06-02T20:50:04.559Z,9.50
2018-06-02T20:52:41.003Z,9.50
2018-06-02T20:55:13.906Z,9.75
2018-06-02T20:57:58.131Z,10.00
2018-06-02T21:00:46.814Z,10.75
2018-06-02T21:03:30.729Z,10.25
2018-06-02T21:06:07.001Z,11.00
2018-06-02T21:08:39.915Z,11.25
2018-06-02T21:11:39.053Z,12.25
2018-06-02T21:14:15.163Z,11.50
2018-06-02T21:16:47.073Z,12.00
2018-06-02T21:19:20.658Z,12.00
2018-06-02T21:22:11.088Z,11.75
2018-06-02T21:24:53.118Z,15.00
2018-06-02T21:27:54.078Z,14.00
2018-06-02T21:30:42.933Z,10.00
2018-06-02T21:33:29.226Z,12.50
2018-06-02T21:36:11.675Z,11.50
2018-06-02T21:38:44.531Z,10.50
2018-06-02T21:41:17.268Z,13.00
2018-06-02T21:43:55.918Z,11.75
2018-06-02T21:46:34.417Z,11.75
2018-06-02T21:49:13.363Z,10.75
2018-06-02T21:52:05.545Z,12.50
2018-06-02T21:54:51.293Z,21.25
2018-06-02T21:57:22.243Z,11.50
2018-06-02T22:00:09.169Z,13.00
2018-06-02T22:02:46.779Z,13.00
2018-06-02T22:05:20.364Z,12.00
2018-06-02T22:07:55.750Z,16.00
2018-06-02T22:10:33.666Z,15.00
2018-06-02T22:13:13.582Z,14.25
2018-06-02T22:15:45.926Z,13.25
2018-06-02T22:18:21.194Z,13.50
2018-06-02T22:21:18.964Z,13.75
2018-06-02T22:23:57.721Z,15.75
2018-06-02T22:26:37.668Z,20.50
2018-06-02T22:29:21.366Z,14.75
2018-06-02T22:31:52.574Z,16.25
2018-06-02T22:34:36.248Z,15.75
2018-06-02T22:37:13.045Z,15.00
2018-06-02T22:39:51.883Z,17.00
2018-06-02T22:42:23.457Z,16.50
2018-06-02T22:44:56.530Z,17.75
2018-06-02T22:47:35.820Z,16.75
2018-06-02T22:50:11.584Z,20.50
2018-06-02T22:52:51.636Z,16.50
2018-06-02T22:55:23.992Z,16.75
2018-06-02T22:57:57.737Z,17.00
2018-06-02T23:00:35.685Z,17.75
2018-06-02T23:06:19.095Z,18.00
2018-06-02T23:08:58.106Z,18.00
2018-06-02T23:11:33.185Z,18.50
2018-06-02T23:14:17.323Z,20.75
2018-06-02T23:17:03.014Z,18.75
2018-06-02T23:19:56.195Z,18.00
2018-06-02T23:22:40.135Z,16.50
2018-06-02T23:25:11.553Z,18.50
2018-06-02T23:27:55.977Z,20.75
2018-06-02T23:30:30.388Z,18.75
2018-06-02T23:38:41.694Z,19.00
2018-06-02T23:41:12.786Z,20.25
2018-06-02T23:43:43.305Z,21.25
2018-06-02T23:46:15.107Z,20.75
2018-06-02T23:48:46.349Z,21.00
2018-06-02T23:51:19.207Z,20.75
2018-06-02T23:53:50.745Z,19.00
2018-06-02T23:56:21.471Z,19.75
2018-06-02T23:58:51.943Z,18.50
